Terminal Aerodrome Forecast
Issued by NWS

Home | Current Version | Previous Version | Graphics & Text | Print | Product List | Glossary On
Versions: 1 2 3 4 5 6 7 8 9 10 11 12 13 14
121
FTUS43 KGRB 081602 AAA
TAFAUW
TAF AMD
KAUW 081602Z 0816/0912 32012G18KT P6SM BKN017 BKN025
      TEMPO 0816/0818 5SM -SN BKN015
     FM081800 30012G18KT 3SM -SN BR OVC015
      TEMPO 0820/0824 1 1/2SM -SN OVC015
     FM090000 34012KT 6SM -SN BR OVC011=

USA.gov is the U.S. government's official web portal to all federal, state and local government web resources and services.